< < Back
Terminal Aerodrome Forecast


Current Version              Previous Versions:   1  2  3  4  5  6  7  8  9  

Terminal Aerodrome Forecast

825
FTUS42 KFFC 311416 AAA
TAFFTY
TAF AMD
KFTY 311416Z 3114/0112 05006KT P6SM OVC020
     FM311700 VRB04KT P6SM BKN035
     FM311900 VRB04KT P6SM SCT040
     FM010000 00000KT P6SM SCT045 SCT250=



Latest METAR

616
SAUS70 KWBC 311700 RRI
MTRFTY
METAR KFTY 311653Z VRB03KT 10SM OVC008 22/20 A3016 RMK AO2 CIG 006V010
SLP205 T02220200


USA.gov is the U.S. government's official web portal to all federal, state and local government web resources and services.